Time,TemperatureF,DewpointF,PressureIn,WindDirection,WindDirectionDegrees,WindSpeedMPH,WindSpeedGustMPH,Humidity,HourlyPrecipIn,Conditions,Clouds,dailyrainin,SoftwareType,DateUTC
2013-09-06 00:01:00,92.2,61.4,29.75,ESE,117,0.0,1.0,36,0.00,,,0.00,Wunderground v.1.15,2013-09-06 07:01:00,
2013-09-06 00:06:00,92.1,61.3,29.75,ESE,115,0.0,2.0,36,0.00,,,0.00,Wunderground v.1.15,2013-09-06 07:06:00,
2013-09-06 00:11:00,91.9,61.1,29.74,ESE,119,0.0,1.0,36,0.00,,,0.00,Wunderground v.1.15,2013-09-06 07:11:00,
2013-09-06 00:16:00,91.8,61.0,29.75,ESE,108,1.0,1.0,36,0.00,,,0.00,Wunderground v.1.15,2013-09-06 07:16:00,
2013-09-06 00:21:00,91.7,61.7,29.75,ESE,108,0.0,0.0,37,0.00,,,0.00,Wunderground v.1.15,2013-09-06 07:21:00,
2013-09-06 00:26:00,91.4,61.5,29.75,ESE,108,0.0,1.0,37,0.00,,,0.00,Wunderground v.1.15,2013-09-06 07:26:00,
2013-09-06 00:31:00,91.0,61.1,29.75,ESE,107,0.0,0.0,37,0.00,,,0.00,Wunderground v.1.15,2013-09-06 07:31:00,
2013-09-06 00:36:00,90.8,61.7,29.75,ESE,108,0.0,0.0,38,0.00,,,0.00,Wunderground v.1.15,2013-09-06 07:36:00,
2013-09-06 00:41:00,90.8,61.7,29.75,ESE,108,0.0,0.0,38,0.00,,,0.00,Wunderground v.1.15,2013-09-06 07:41:00,
2013-09-06 00:46:00,90.5,61.4,29.75,ESE,108,0.0,0.0,38,0.00,,,0.00,Wunderground v.1.15,2013-09-06 07:46:00,
2013-09-06 00:51:00,90.0,61.7,29.75,ESE,107,0.0,0.0,39,0.00,,,0.00,Wunderground v.1.15,2013-09-06 07:51:00,
2013-09-06 00:56:00,89.7,61.5,29.75,ESE,108,0.0,0.0,39,0.00,,,0.00,Wunderground v.1.15,2013-09-06 07:56:00,
2013-09-06 01:01:00,89.9,61.6,29.75,ESE,108,0.0,0.0,39,0.00,,,0.00,Wunderground v.1.15,2013-09-06 08:01:00,
2013-09-06 01:06:00,90.1,61.1,29.75,ESE,115,0.0,1.0,38,0.00,,,0.00,Wunderground v.1.15,2013-09-06 08:06:00,
2013-09-06 01:11:00,90.5,61.4,29.75,ESE,117,0.0,0.0,38,0.00,,,0.00,Wunderground v.1.15,2013-09-06 08:11:00,
2013-09-06 01:16:00,90.6,61.5,29.75,ESE,117,0.0,0.0,38,0.00,,,0.00,Wunderground v.1.15,2013-09-06 08:16:00,
2013-09-06 01:21:00,90.0,61.7,29.75,NW,326,6.0,6.0,39,0.00,,,0.00,Wunderground v.1.15,2013-09-06 08:21:00,
2013-09-06 01:26:00,84.6,67.2,29.75,North,9,1.0,6.0,56,0.00,,,0.00,Wunderground v.1.15,2013-09-06 08:26:00,
2013-09-06 01:31:00,82.2,66.0,29.75,North,5,0.0,3.0,58,0.00,,,0.00,Wunderground v.1.15,2013-09-06 08:31:00,
2013-09-06 01:36:00,81.3,64.1,29.75,ENE,75,0.0,3.0,56,0.00,,,0.00,Wunderground v.1.15,2013-09-06 08:36:00,
2013-09-06 01:41:00,81.5,63.8,29.75,ENE,71,0.0,1.0,55,0.00,,,0.00,Wunderground v.1.15,2013-09-06 08:41:00,
2013-09-06 01:46:00,82.5,63.6,29.75,ENE,77,0.0,1.0,53,0.00,,,0.00,Wunderground v.1.15,2013-09-06 08:46:00,
2013-09-06 01:51:00,83.8,63.7,29.75,East,85,0.0,1.0,51,0.00,,,0.00,Wunderground v.1.15,2013-09-06 08:51:00,
2013-09-06 01:56:00,84.8,63.5,29.75,East,89,1.0,2.0,49,0.00,,,0.00,Wunderground v.1.15,2013-09-06 08:56:00,
2013-09-06 02:01:00,85.6,63.1,29.75,ESE,104,1.0,1.0,47,0.00,,,0.00,Wunderground v.1.15,2013-09-06 09:01:00,
2013-09-06 02:06:00,86.1,63.5,29.75,ESE,108,0.0,1.0,47,0.00,,,0.00,Wunderground v.1.15,2013-09-06 09:06:00,
2013-09-06 02:11:00,86.0,63.4,29.75,ESE,114,0.0,0.0,47,0.00,,,0.00,Wunderground v.1.15,2013-09-06 09:11:00,
2013-09-06 02:16:00,85.9,63.9,29.75,SE,128,0.0,0.0,48,0.00,,,0.00,Wunderground v.1.15,2013-09-06 09:16:00,
2013-09-06 02:21:00,85.9,63.9,29.74,ESE,117,0.0,1.0,48,0.00,,,0.00,Wunderground v.1.15,2013-09-06 09:21:00,
2013-09-06 02:26:00,86.0,64.0,29.74,ESE,117,0.0,1.0,48,0.00,,,0.00,Wunderground v.1.15,2013-09-06 09:26:00,
2013-09-06 02:31:00,86.0,64.0,29.74,ESE,117,0.0,0.0,48,0.00,,,0.00,Wunderground v.1.15,2013-09-06 09:31:00,
2013-09-06 02:36:00,85.9,64.5,29.74,ESE,118,0.0,1.0,49,0.00,,,0.00,Wunderground v.1.15,2013-09-06 09:36:00,
2013-09-06 02:41:00,86.0,64.0,29.74,ESE,117,0.0,0.0,48,0.00,,,0.00,Wunderground v.1.15,2013-09-06 09:41:00,
2013-09-06 02:46:00,86.0,64.0,29.74,ESE,115,0.0,1.0,48,0.00,,,0.00,Wunderground v.1.15,2013-09-06 09:46:00,
2013-09-06 02:51:00,86.0,63.4,29.74,ESE,104,0.0,1.0,47,0.00,,,0.00,Wunderground v.1.15,2013-09-06 09:51:00,
2013-09-06 02:56:00,86.5,63.3,29.74,ESE,108,0.0,1.0,46,0.00,,,0.00,Wunderground v.1.15,2013-09-06 09:56:00,
2013-09-06 03:01:00,86.8,62.9,29.75,ESE,105,0.0,0.0,45,0.00,,,0.00,Wunderground v.1.15,2013-09-06 10:01:00,
2013-09-06 03:06:00,86.5,63.3,29.74,ESE,105,0.0,1.0,46,0.00,,,0.00,Wunderground v.1.15,2013-09-06 10:06:00,
2013-09-06 03:11:00,86.2,63.6,29.75,East,101,0.0,0.0,47,0.00,,,0.00,Wunderground v.1.15,2013-09-06 10:11:00,
2013-09-06 03:16:00,86.1,62.9,29.75,East,97,0.0,1.0,46,0.00,,,0.00,Wunderground v.1.15,2013-09-06 10:16:00,
2013-09-06 03:21:00,86.1,62.9,29.74,NE,42,0.0,0.0,46,0.00,,,0.00,Wunderground v.1.15,2013-09-06 10:21:00,
2013-09-06 03:26:00,86.1,63.5,29.75,NE,43,0.0,0.0,47,0.00,,,0.00,Wunderground v.1.15,2013-09-06 10:26:00,
2013-09-06 03:31:00,86.1,62.9,29.75,NE,41,0.0,0.0,46,0.00,,,0.00,Wunderground v.1.15,2013-09-06 10:31:00,
2013-09-06 03:36:00,86.2,63.0,29.75,NE,42,0.0,0.0,46,0.00,,,0.00,Wunderground v.1.15,2013-09-06 10:36:00,
2013-09-06 03:41:00,86.3,63.1,29.75,NE,42,0.0,0.0,46,0.00,,,0.00,Wunderground v.1.15,2013-09-06 10:41:00,
2013-09-06 03:46:00,86.3,63.1,29.74,NE,42,0.0,0.0,46,0.00,,,0.00,Wunderground v.1.15,2013-09-06 10:46:00,
2013-09-06 03:51:00,86.4,63.2,29.74,NNE,18,0.0,0.0,46,0.00,,,0.00,Wunderground v.1.15,2013-09-06 10:51:00,
2013-09-06 03:56:00,86.4,62.5,29.74,NNE,18,0.0,0.0,45,0.00,,,0.00,Wunderground v.1.15,2013-09-06 10:56:00,
2013-09-06 04:01:00,86.3,63.1,29.75,NNE,18,0.0,0.0,46,0.00,,,0.00,Wunderground v.1.15,2013-09-06 11:01:00,
2013-09-06 04:06:00,86.1,62.9,29.74,North,10,0.0,0.0,46,0.00,,,0.00,Wunderground v.1.15,2013-09-06 11:06:00,
2013-09-06 04:11:00,86.3,62.5,29.74,WSW,242,1.0,1.0,45,0.00,,,0.00,Wunderground v.1.15,2013-09-06 11:11:00,
2013-09-06 04:16:00,86.9,63.0,29.75,SW,235,0.0,2.0,45,0.00,,,0.00,Wunderground v.1.15,2013-09-06 11:16:00,
2013-09-06 04:21:00,86.8,63.5,29.75,SW,236,0.0,0.0,46,0.00,,,0.00,Wunderground v.1.15,2013-09-06 11:21:00,
2013-09-06 04:26:00,85.9,66.2,29.75,NNW,338,0.0,1.0,52,0.00,,,0.00,Wunderground v.1.15,2013-09-06 11:26:00,
2013-09-06 04:31:00,84.0,67.1,29.75,North,351,0.0,0.0,57,0.00,,,0.00,Wunderground v.1.15,2013-09-06 11:31:00,
2013-09-06 04:36:00,82.8,68.0,29.75,North,352,0.0,1.0,61,0.00,,,0.00,Wunderground v.1.15,2013-09-06 11:36:00,
2013-09-06 04:41:00,81.8,67.0,29.75,NNW,348,0.0,0.0,61,0.00,,,0.00,Wunderground v.1.15,2013-09-06 11:41:00,
2013-09-06 04:46:00,81.4,65.7,29.75,NNW,344,0.0,0.0,59,0.00,,,0.00,Wunderground v.1.15,2013-09-06 11:46:00,
2013-09-06 04:50:00,81.2,65.5,29.75,NNW,345,0.0,0.0,59,0.00,,,0.00,Wunderground v.1.15,2013-09-06 11:50:00,
2013-09-06 04:55:00,81.1,65.9,29.76,NNW,345,0.0,0.0,60,0.00,,,0.00,Wunderground v.1.15,2013-09-06 11:55:00,
2013-09-06 05:00:00,81.0,66.3,29.75,NNW,344,0.0,0.0,61,0.00,,,0.00,Wunderground v.1.15,2013-09-06 12:00:00,
2013-09-06 05:05:00,81.1,65.9,29.75,NNW,340,0.0,0.0,60,0.00,,,0.00,Wunderground v.1.15,2013-09-06 12:05:00,
2013-09-06 05:10:00,81.7,65.5,29.76,ENE,72,0.0,1.0,58,0.00,,,0.00,Wunderground v.1.15,2013-09-06 12:10:00,
2013-09-06 05:15:00,82.6,65.3,29.76,ENE,70,0.0,1.0,56,0.00,,,0.00,Wunderground v.1.15,2013-09-06 12:15:00,
2013-09-06 05:20:00,83.1,65.3,29.76,ENE,72,0.0,1.0,55,0.00,,,0.00,Wunderground v.1.15,2013-09-06 12:20:00,
2013-09-06 05:25:00,83.7,65.3,29.76,ENE,78,0.0,1.0,54,0.00,,,0.00,Wunderground v.1.15,2013-09-06 12:25:00,
2013-09-06 05:30:00,84.3,64.8,29.76,ESE,102,0.0,0.0,52,0.00,,,0.00,Wunderground v.1.15,2013-09-06 12:30:00,
2013-09-06 05:35:00,84.3,65.3,29.76,East,101,0.0,0.0,53,0.00,,,0.00,Wunderground v.1.15,2013-09-06 12:35:00,
2013-09-06 05:40:00,84.0,65.6,29.76,ESE,108,0.0,0.0,54,0.00,,,0.00,Wunderground v.1.15,2013-09-06 12:40:00,
2013-09-06 05:45:00,83.9,65.5,29.76,ESE,108,0.0,1.0,54,0.00,,,0.00,Wunderground v.1.15,2013-09-06 12:45:00,
2013-09-06 05:50:00,84.0,65.0,29.76,ESE,109,0.0,0.0,53,0.00,,,0.00,Wunderground v.1.15,2013-09-06 12:50:00,
2013-09-06 05:55:00,84.2,64.7,29.76,ESE,110,1.0,2.0,52,0.00,,,0.00,Wunderground v.1.15,2013-09-06 12:55:00,
2013-09-06 06:00:00,84.4,65.4,29.76,ESE,114,0.0,0.0,53,0.00,,,0.00,Wunderground v.1.15,2013-09-06 13:00:00,
2013-09-06 06:05:00,84.3,65.3,29.76,ESE,108,0.0,1.0,53,0.00,,,0.00,Wunderground v.1.15,2013-09-06 13:05:00,
2013-09-06 06:10:00,84.3,64.8,29.76,ESE,106,0.0,0.0,52,0.00,,,0.00,Wunderground v.1.15,2013-09-06 13:10:00,
2013-09-06 06:15:00,84.3,64.8,29.76,ESE,108,0.0,1.0,52,0.00,,,0.00,Wunderground v.1.15,2013-09-06 13:15:00,
2013-09-06 06:20:00,84.2,65.2,29.76,ESE,115,1.0,1.0,53,0.00,,,0.00,Wunderground v.1.15,2013-09-06 13:20:00,
2013-09-06 06:25:00,84.2,65.2,29.76,ESE,115,0.0,1.0,53,0.00,,,0.00,Wunderground v.1.15,2013-09-06 13:25:00,
2013-09-06 06:30:00,84.4,65.4,29.76,ESE,110,0.0,1.0,53,0.00,,,0.00,Wunderground v.1.15,2013-09-06 13:30:00,
2013-09-06 06:35:00,84.5,64.9,29.76,ESE,115,0.0,1.0,52,0.00,,,0.00,Wunderground v.1.15,2013-09-06 13:35:00,
2013-09-06 06:40:00,84.5,65.5,29.77,ESE,115,0.0,0.0,53,0.00,,,0.00,Wunderground v.1.15,2013-09-06 13:40:00,
2013-09-06 06:45:00,84.5,64.9,29.77,ESE,113,0.0,1.0,52,0.00,,,0.00,Wunderground v.1.15,2013-09-06 13:45:00,
2013-09-06 06:50:00,84.5,66.6,29.77,ESE,113,0.0,0.0,55,0.00,,,0.00,Wunderground v.1.15,2013-09-06 13:50:00,
2013-09-06 06:55:00,83.4,66.1,29.77,ESE,115,0.0,0.0,56,0.00,,,0.00,Wunderground v.1.15,2013-09-06 13:55:00,
2013-09-06 07:00:00,82.3,67.5,29.77,North,6,1.0,1.0,61,0.00,,,0.00,Wunderground v.1.15,2013-09-06 14:00:00,
2013-09-06 07:05:00,80.7,67.4,29.78,North,6,1.0,1.0,64,0.00,,,0.00,Wunderground v.1.15,2013-09-06 14:05:00,
2013-09-06 07:10:00,79.3,67.8,29.78,NW,312,3.0,3.0,68,0.00,,,0.00,Wunderground v.1.15,2013-09-06 14:10:00,
2013-09-06 07:15:00,78.1,67.9,29.78,North,358,2.0,3.0,71,0.00,,,0.00,Wunderground v.1.15,2013-09-06 14:15:00,
2013-09-06 07:20:00,78.0,67.4,29.78,North,8,0.0,1.0,70,0.00,,,0.00,Wunderground v.1.15,2013-09-06 14:20:00,
2013-09-06 07:25:00,79.0,67.1,29.78,NNW,347,0.0,1.0,67,0.00,,,0.00,Wunderground v.1.15,2013-09-06 14:25:00,
2013-09-06 07:30:00,80.7,67.8,29.79,NE,37,0.0,0.0,65,0.00,,,0.00,Wunderground v.1.15,2013-09-06 14:30:00,
2013-09-06 07:35:00,81.9,68.1,29.79,NE,34,0.0,1.0,63,0.00,,,0.00,Wunderground v.1.15,2013-09-06 14:35:00,
2013-09-06 07:40:00,83.2,67.9,29.79,North,8,1.0,2.0,60,0.00,,,0.00,Wunderground v.1.15,2013-09-06 14:40:00,
2013-09-06 07:45:00,83.5,70.5,29.79,North,4,0.0,2.0,65,0.00,,,0.00,Wunderground v.1.15,2013-09-06 14:45:00,
2013-09-06 07:50:00,84.3,69.9,29.79,North,3,1.0,1.0,62,0.00,,,0.00,Wunderground v.1.15,2013-09-06 14:50:00,
2013-09-06 07:55:00,85.4,67.4,29.79,NNW,346,0.0,2.0,55,0.00,,,0.00,Wunderground v.1.15,2013-09-06 14:55:00,
2013-09-06 08:00:00,87.0,66.1,29.80,NNW,340,0.0,0.0,50,0.00,,,0.00,Wunderground v.1.15,2013-09-06 15:00:00,
2013-09-06 08:05:00,89.0,65.5,29.80,ENE,70,0.0,2.0,46,0.00,,,0.00,Wunderground v.1.15,2013-09-06 15:05:00,
2013-09-06 08:10:00,90.7,64.5,29.79,East,94,0.0,2.0,42,0.00,,,0.00,Wunderground v.1.15,2013-09-06 15:10:00,
2013-09-06 08:15:00,91.9,64.8,29.80,ESE,105,0.0,2.0,41,0.00,,,0.00,Wunderground v.1.15,2013-09-06 15:15:00,
2013-09-06 08:20:00,92.9,65.0,29.79,ESE,119,0.0,0.0,40,0.00,,,0.00,Wunderground v.1.15,2013-09-06 15:20:00,
2013-09-06 08:25:00,93.6,64.9,29.80,ESE,110,0.0,1.0,39,0.00,,,0.00,Wunderground v.1.15,2013-09-06 15:25:00,
2013-09-06 08:30:00,94.2,66.2,29.80,North,10,1.0,1.0,40,0.00,,,0.00,Wunderground v.1.15,2013-09-06 15:30:00,
2013-09-06 08:35:00,92.6,73.5,29.80,NW,304,2.0,2.0,54,0.00,,,0.00,Wunderground v.1.15,2013-09-06 15:35:00,
2013-09-06 08:40:00,90.8,71.9,29.79,NNW,348,2.0,3.0,54,0.00,,,0.00,Wunderground v.1.15,2013-09-06 15:40:00,
2013-09-06 08:45:00,90.2,70.2,29.80,NW,325,2.0,3.0,52,0.00,,,0.00,Wunderground v.1.15,2013-09-06 15:45:00,
2013-09-06 08:50:00,90.2,71.8,29.80,NW,316,2.0,2.0,55,0.00,,,0.00,Wunderground v.1.15,2013-09-06 15:50:00,
2013-09-06 08:55:00,90.5,68.1,29.80,NW,311,1.0,2.0,48,0.00,,,0.00,Wunderground v.1.15,2013-09-06 15:55:00,
2013-09-06 09:00:00,91.1,69.9,29.80,NW,319,2.0,2.0,50,0.00,,,0.00,Wunderground v.1.15,2013-09-06 16:00:00,
2013-09-06 09:05:00,91.4,70.1,29.80,NNW,335,2.0,3.0,50,0.00,,,0.00,Wunderground v.1.15,2013-09-06 16:05:00,
2013-09-06 09:10:00,92.0,70.7,29.80,WNW,301,1.0,2.0,50,0.00,,,0.00,Wunderground v.1.15,2013-09-06 16:10:00,
2013-09-06 09:15:00,92.6,66.2,29.80,NW,306,0.0,2.0,42,0.00,,,0.00,Wunderground v.1.15,2013-09-06 16:15:00,
2013-09-06 09:20:00,93.3,66.1,29.80,NW,325,1.0,1.0,41,0.00,,,0.00,Wunderground v.1.15,2013-09-06 16:20:00,
2013-09-06 09:25:00,93.8,70.5,29.80,NW,310,0.0,2.0,47,0.00,,,0.00,Wunderground v.1.15,2013-09-06 16:25:00,
2013-09-06 09:30:00,94.2,68.3,29.80,NW,305,0.0,1.0,43,0.00,,,0.00,Wunderground v.1.15,2013-09-06 16:30:00,
2013-09-06 09:35:00,94.2,70.2,29.80,North,4,3.0,5.0,46,0.00,,,0.00,Wunderground v.1.15,2013-09-06 16:35:00,
2013-09-06 09:40:00,93.9,67.3,29.80,North,1,2.0,5.0,42,0.00,,,0.00,Wunderground v.1.15,2013-09-06 16:40:00,
2013-09-06 09:45:00,94.1,69.5,29.80,NNW,333,3.0,5.0,45,0.00,,,0.00,Wunderground v.1.15,2013-09-06 16:45:00,
2013-09-06 09:50:00,94.3,70.3,29.80,NW,319,2.0,3.0,46,0.00,,,0.00,Wunderground v.1.15,2013-09-06 16:50:00,
2013-09-06 09:55:00,94.8,70.1,29.80,NW,323,3.0,3.0,45,0.00,,,0.00,Wunderground v.1.15,2013-09-06 16:55:00,
2013-09-06 10:00:00,95.1,67.0,29.80,North,4,3.0,3.0,40,0.00,,,0.00,Wunderground v.1.15,2013-09-06 17:00:00,
2013-09-06 10:05:00,95.8,70.4,29.80,North,6,2.0,5.0,44,0.00,,,0.00,Wunderground v.1.15,2013-09-06 17:05:00,
2013-09-06 10:10:00,96.7,65.4,29.80,North,358,2.0,3.0,36,0.00,,,0.00,Wunderground v.1.15,2013-09-06 17:10:00,
2013-09-06 10:15:00,97.0,67.9,29.80,North,353,5.0,6.0,39,0.00,,,0.00,Wunderground v.1.15,2013-09-06 17:15:00,
2013-09-06 10:20:00,96.4,67.4,29.80,North,4,2.0,3.0,39,0.00,,,0.00,Wunderground v.1.15,2013-09-06 17:20:00,
2013-09-06 10:25:00,96.3,62.5,29.80,WNW,295,0.0,7.0,33,0.00,,,0.00,Wunderground v.1.15,2013-09-06 17:25:00,
2013-09-06 10:30:00,96.6,65.3,29.80,North,6,5.0,8.0,36,0.00,,,0.00,Wunderground v.1.15,2013-09-06 17:30:00,
2013-09-06 10:35:00,97.0,66.4,29.80,NE,55,3.0,8.0,37,0.00,,,0.00,Wunderground v.1.15,2013-09-06 17:35:00,
2013-09-06 10:40:00,96.7,66.1,29.80,NW,319,5.0,6.0,37,0.00,,,0.00,Wunderground v.1.15,2013-09-06 17:40:00,
2013-09-06 10:45:00,96.6,64.5,29.80,North,10,9.0,9.0,35,0.00,,,0.00,Wunderground v.1.15,2013-09-06 17:45:00,
2013-09-06 10:50:00,96.1,67.9,29.80,NW,324,2.0,4.0,40,0.00,,,0.00,Wunderground v.1.15,2013-09-06 17:50:00,
2013-09-06 10:55:00,95.4,66.5,29.80,NE,34,3.0,7.0,39,0.00,,,0.00,Wunderground v.1.15,2013-09-06 17:55:00,
2013-09-06 11:00:00,95.5,65.9,29.80,NNW,345,5.0,5.0,38,0.00,,,0.00,Wunderground v.1.15,2013-09-06 18:00:00,
2013-09-06 11:05:00,95.6,68.1,29.80,North,356,5.0,6.0,41,0.00,,,0.00,Wunderground v.1.15,2013-09-06 18:05:00,
2013-09-06 11:10:00,95.2,69.2,29.80,North,352,4.0,4.0,43,0.00,,,0.00,Wunderground v.1.15,2013-09-06 18:10:00,
2013-09-06 11:15:00,95.1,69.1,29.79,North,350,6.0,6.0,43,0.00,,,0.00,Wunderground v.1.15,2013-09-06 18:15:00,
2013-09-06 11:20:00,95.2,69.2,29.79,North,352,3.0,4.0,43,0.00,,,0.00,Wunderground v.1.15,2013-09-06 18:20:00,
2013-09-06 11:25:00,95.4,70.0,29.79,NW,325,5.0,5.0,44,0.00,,,0.00,Wunderground v.1.15,2013-09-06 18:25:00,
2013-09-06 11:30:00,95.7,71.0,29.79,NNW,339,2.0,3.0,45,0.00,,,0.00,Wunderground v.1.15,2013-09-06 18:30:00,
2013-09-06 11:35:00,96.1,70.7,29.79,NW,322,1.0,4.0,44,0.00,,,0.00,Wunderground v.1.15,2013-09-06 18:35:00,
2013-09-06 11:40:00,97.0,71.5,29.79,NW,318,2.0,2.0,44,0.00,,,0.00,Wunderground v.1.15,2013-09-06 18:40:00,
2013-09-06 11:45:00,97.8,70.1,29.79,NW,314,2.0,4.0,41,0.00,,,0.00,Wunderground v.1.15,2013-09-06 18:45:00,
2013-09-06 11:50:00,97.8,67.9,29.78,NW,310,4.0,4.0,38,0.00,,,0.00,Wunderground v.1.15,2013-09-06 18:50:00,
2013-09-06 11:55:00,97.6,67.7,29.78,WNW,295,2.0,4.0,38,0.00,,,0.00,Wunderground v.1.15,2013-09-06 18:55:00,
2013-09-06 12:00:00,97.1,69.5,29.78,NW,314,2.0,3.0,41,0.00,,,0.00,Wunderground v.1.15,2013-09-06 19:00:00,
2013-09-06 12:05:00,96.9,72.0,29.78,WNW,302,2.0,4.0,45,0.00,,,0.00,Wunderground v.1.15,2013-09-06 19:05:00,
2013-09-06 12:10:00,97.3,71.1,29.78,WNW,297,2.0,4.0,43,0.00,,,0.00,Wunderground v.1.15,2013-09-06 19:10:00,
2013-09-06 12:15:00,97.6,73.3,29.78,WNW,299,2.0,4.0,46,0.00,,,0.00,Wunderground v.1.15,2013-09-06 19:15:00,
2013-09-06 12:19:00,97.2,71.0,29.77,West,279,1.0,4.0,43,0.00,,,0.00,Wunderground v.1.15,2013-09-06 19:19:00,
2013-09-06 12:24:00,97.1,72.2,29.77,West,271,2.0,3.0,45,0.00,,,0.00,Wunderground v.1.15,2013-09-06 19:24:00,
2013-09-06 12:29:00,97.2,69.6,29.78,West,277,3.0,3.0,41,0.00,,,0.00,Wunderground v.1.15,2013-09-06 19:29:00,
2013-09-06 12:34:00,97.8,70.8,29.78,West,264,3.0,3.0,42,0.00,,,0.00,Wunderground v.1.15,2013-09-06 19:34:00,
2013-09-06 12:39:00,97.9,65.6,29.77,West,278,4.0,5.0,35,0.00,,,0.00,Wunderground v.1.15,2013-09-06 19:39:00,
2013-09-06 12:44:00,97.5,72.6,29.77,WNW,290,2.0,5.0,45,0.00,,,0.00,Wunderground v.1.15,2013-09-06 19:44:00,
2013-09-06 12:49:00,96.8,70.6,29.77,SSW,207,2.0,5.0,43,0.00,,,0.00,Wunderground v.1.15,2013-09-06 19:49:00,
2013-09-06 12:54:00,96.8,63.8,29.77,West,280,2.0,3.0,34,0.00,,,0.00,Wunderground v.1.15,2013-09-06 19:54:00,
2013-09-06 12:59:00,97.9,61.2,29.77,WNW,285,0.0,3.0,30,0.00,,,0.00,Wunderground v.1.15,2013-09-06 19:59:00,
2013-09-06 13:04:00,98.5,62.6,29.77,NNE,19,0.0,3.0,31,0.00,,,0.00,Wunderground v.1.15,2013-09-06 20:04:00,
2013-09-06 13:09:00,99.0,64.9,29.76,ESE,122,1.0,3.0,33,0.00,,,0.00,Wunderground v.1.15,2013-09-06 20:09:00,
2013-09-06 13:14:00,99.7,61.8,29.76,WSW,258,0.0,2.0,29,0.00,,,0.00,Wunderground v.1.15,2013-09-06 20:14:00,
2013-09-06 13:19:00,100.0,65.7,29.75,WNW,294,0.0,2.0,33,0.00,,,0.00,Wunderground v.1.15,2013-09-06 20:19:00,
2013-09-06 13:24:00,100.7,67.2,29.75,West,278,1.0,2.0,34,0.00,,,0.00,Wunderground v.1.15,2013-09-06 20:24:00,
2013-09-06 13:29:00,100.6,72.6,29.75,WNW,283,4.0,5.0,41,0.00,,,0.00,Wunderground v.1.15,2013-09-06 20:29:00,
2013-09-06 13:34:00,100.0,68.3,29.75,West,271,3.0,4.0,36,0.00,,,0.00,Wunderground v.1.15,2013-09-06 20:34:00,
2013-09-06 13:39:00,100.6,70.4,29.74,WSW,250,1.0,4.0,38,0.00,,,0.00,Wunderground v.1.15,2013-09-06 20:39:00,
2013-09-06 13:44:00,101.9,67.4,29.74,WNW,294,1.0,3.0,33,0.00,,,0.00,Wunderground v.1.15,2013-09-06 20:44:00,
2013-09-06 13:49:00,102.7,68.1,29.74,SW,236,3.0,4.0,33,0.00,,,0.00,Wunderground v.1.15,2013-09-06 20:49:00,
2013-09-06 13:54:00,103.0,66.5,29.73,West,281,2.0,4.0,31,0.00,,,0.00,Wunderground v.1.15,2013-09-06 20:54:00,
2013-09-06 13:59:00,103.3,68.6,29.73,West,281,5.0,5.0,33,0.00,,,0.00,Wunderground v.1.15,2013-09-06 20:59:00,
2013-09-06 14:04:00,103.2,66.7,29.72,West,267,0.0,4.0,31,0.00,,,0.00,Wunderground v.1.15,2013-09-06 21:04:00,
2013-09-06 14:09:00,103.8,65.3,29.72,WNW,285,3.0,4.0,29,0.00,,,0.00,Wunderground v.1.15,2013-09-06 21:09:00,
2013-09-06 14:14:00,104.2,67.6,29.72,West,277,3.0,5.0,31,0.00,,,0.00,Wunderground v.1.15,2013-09-06 21:14:00,
2013-09-06 14:19:00,104.5,61.6,29.72,West,267,2.0,5.0,25,0.00,,,0.00,Wunderground v.1.15,2013-09-06 21:19:00,
2013-09-06 14:24:00,105.0,63.2,29.71,West,281,2.0,4.0,26,0.00,,,0.00,Wunderground v.1.15,2013-09-06 21:24:00,
2013-09-06 14:29:00,105.0,66.3,29.71,WNW,291,2.0,4.0,29,0.00,,,0.00,Wunderground v.1.15,2013-09-06 21:29:00,
2013-09-06 14:34:00,104.5,66.9,29.71,WNW,294,2.0,4.0,30,0.00,,,0.00,Wunderground v.1.15,2013-09-06 21:34:00,
2013-09-06 14:39:00,104.3,67.6,29.70,West,267,2.0,4.0,31,0.00,,,0.00,Wunderground v.1.15,2013-09-06 21:39:00,
2013-09-06 14:44:00,104.1,75.0,29.70,WNW,297,4.0,5.0,40,0.00,,,0.00,Wunderground v.1.15,2013-09-06 21:44:00,
2013-09-06 14:49:00,103.4,61.8,29.70,WNW,297,2.0,5.0,26,0.00,,,0.00,Wunderground v.1.15,2013-09-06 21:49:00,
2013-09-06 14:54:00,103.6,69.7,29.69,NW,319,3.0,4.0,34,0.00,,,0.00,Wunderground v.1.15,2013-09-06 21:54:00,
2013-09-06 14:59:00,103.6,69.7,29.69,NW,316,5.0,5.0,34,0.00,,,0.00,Wunderground v.1.15,2013-09-06 21:59:00,
2013-09-06 15:04:00,103.5,73.7,29.69,NW,304,4.0,6.0,39,0.00,,,0.00,Wunderground v.1.15,2013-09-06 22:04:00,
2013-09-06 15:09:00,103.6,72.2,29.69,WNW,284,2.0,6.0,37,0.00,,,0.00,Wunderground v.1.15,2013-09-06 22:09:00,
2013-09-06 15:14:00,104.2,71.1,29.68,WNW,286,3.0,3.0,35,0.00,,,0.00,Wunderground v.1.15,2013-09-06 22:14:00,
2013-09-06 15:19:00,104.1,71.9,29.68,West,259,2.0,5.0,36,0.00,,,0.00,Wunderground v.1.15,2013-09-06 22:19:00,
2013-09-06 15:24:00,104.1,71.0,29.68,West,277,2.0,4.0,35,0.00,,,0.00,Wunderground v.1.15,2013-09-06 22:24:00,
2013-09-06 15:29:00,104.3,66.7,29.68,West,281,5.0,6.0,30,0.00,,,0.00,Wunderground v.1.15,2013-09-06 22:29:00,
2013-09-06 15:34:00,104.3,67.6,29.67,West,281,3.0,6.0,31,0.00,,,0.00,Wunderground v.1.15,2013-09-06 22:34:00,
2013-09-06 15:39:00,104.7,71.5,29.67,West,273,2.0,6.0,35,0.00,,,0.00,Wunderground v.1.15,2013-09-06 22:39:00,
2013-09-06 15:44:00,104.7,74.8,29.67,WNW,301,2.0,4.0,39,0.00,,,0.00,Wunderground v.1.15,2013-09-06 22:44:00,
2013-09-06 15:49:00,104.6,67.9,29.67,West,264,3.0,4.0,31,0.00,,,0.00,Wunderground v.1.15,2013-09-06 22:49:00,
2013-09-06 15:54:00,104.9,68.2,29.67,WNW,283,3.0,4.0,31,0.00,,,0.00,Wunderground v.1.15,2013-09-06 22:54:00,
2013-09-06 15:59:00,104.8,76.4,29.67,WNW,294,2.0,4.0,41,0.00,,,0.00,Wunderground v.1.15,2013-09-06 22:59:00,
2013-09-06 16:04:00,104.4,74.5,29.67,NW,319,4.0,4.0,39,0.00,,,0.00,Wunderground v.1.15,2013-09-06 23:04:00,
2013-09-06 16:09:00,104.4,73.7,29.67,WNW,302,2.0,4.0,38,0.00,,,0.00,Wunderground v.1.15,2013-09-06 23:09:00,
2013-09-06 16:14:00,104.5,72.2,29.67,WNW,285,2.0,3.0,36,0.00,,,0.00,Wunderground v.1.15,2013-09-06 23:14:00,
2013-09-06 16:19:00,104.4,72.1,29.67,NNE,20,3.0,5.0,36,0.00,,,0.00,Wunderground v.1.15,2013-09-06 23:19:00,
2013-09-06 16:24:00,104.5,70.5,29.67,WNW,301,3.0,5.0,34,0.00,,,0.00,Wunderground v.1.15,2013-09-06 23:24:00,
2013-09-06 16:29:00,104.1,72.7,29.67,West,267,2.0,6.0,37,0.00,,,0.00,Wunderground v.1.15,2013-09-06 23:29:00,
2013-09-06 16:34:00,104.1,71.0,29.66,WSW,252,2.0,4.0,35,0.00,,,0.00,Wunderground v.1.15,2013-09-06 23:34:00,
2013-09-06 16:39:00,104.0,74.1,29.67,West,280,3.0,4.0,39,0.00,,,0.00,Wunderground v.1.15,2013-09-06 23:39:00,
2013-09-06 16:44:00,103.8,73.2,29.67,West,263,2.0,6.0,38,0.00,,,0.00,Wunderground v.1.15,2013-09-06 23:44:00,
2013-09-06 16:49:00,103.2,72.7,29.67,WNW,287,1.0,6.0,38,0.00,,,0.00,Wunderground v.1.15,2013-09-06 23:49:00,
2013-09-06 16:54:00,103.6,73.0,29.67,West,259,2.0,4.0,38,0.00,,,0.00,Wunderground v.1.15,2013-09-06 23:54:00,
2013-09-06 16:59:00,103.8,69.9,29.66,West,279,3.0,4.0,34,0.00,,,0.00,Wunderground v.1.15,2013-09-06 23:59:00,
2013-09-06 17:04:00,104.3,71.2,29.66,WNW,283,3.0,5.0,35,0.00,,,0.00,Wunderground v.1.15,2013-09-07 00:04:00,
2013-09-06 17:09:00,104.4,72.1,29.66,NW,315,2.0,5.0,36,0.00,,,0.00,Wunderground v.1.15,2013-09-07 00:09:00,
2013-09-06 17:14:00,104.5,71.4,29.66,WSW,246,3.0,4.0,35,0.00,,,0.00,Wunderground v.1.15,2013-09-07 00:14:00,
2013-09-06 17:19:00,103.4,70.4,29.66,West,276,8.0,14.0,35,0.00,,,0.00,Wunderground v.1.15,2013-09-07 00:19:00,
2013-09-06 17:24:00,101.5,64.3,29.66,WNW,285,16.0,16.0,30,0.00,,,0.00,Wunderground v.1.15,2013-09-07 00:24:00,
2013-09-06 17:29:00,100.0,65.7,29.66,West,269,5.0,18.0,33,0.00,,,0.00,Wunderground v.1.15,2013-09-07 00:29:00,
2013-09-06 17:34:00,97.9,65.6,29.67,West,281,6.0,10.0,35,0.00,,,0.00,Wunderground v.1.15,2013-09-07 00:34:00,
2013-09-06 17:39:00,97.3,65.1,29.67,West,279,5.0,11.0,35,0.00,,,0.00,Wunderground v.1.15,2013-09-07 00:39:00,
2013-09-06 17:44:00,96.5,65.2,29.67,WSW,257,7.0,10.0,36,0.00,,,0.00,Wunderground v.1.15,2013-09-07 00:44:00,
2013-09-06 17:49:00,96.0,65.5,29.67,WNW,283,3.0,10.0,37,0.00,,,0.00,Wunderground v.1.15,2013-09-07 00:49:00,
2013-09-06 17:54:00,96.4,63.5,29.67,SW,217,5.0,10.0,34,0.00,,,0.00,Wunderground v.1.15,2013-09-07 00:54:00,
2013-09-06 17:59:00,97.3,65.1,29.67,SW,231,6.0,10.0,35,0.00,,,0.00,Wunderground v.1.15,2013-09-07 00:59:00,
2013-09-06 18:04:00,97.2,65.8,29.67,WSW,249,5.0,9.0,36,0.00,,,0.00,Wunderground v.1.15,2013-09-07 01:04:00,
2013-09-06 18:09:00,97.8,62.9,29.67,WSW,243,10.0,10.0,32,0.00,,,0.00,Wunderground v.1.15,2013-09-07 01:09:00,
2013-09-06 18:14:00,98.3,63.4,29.67,South,180,2.0,10.0,32,0.00,,,0.00,Wunderground v.1.15,2013-09-07 01:14:00,
2013-09-06 18:19:00,97.8,64.7,29.68,SW,222,6.0,12.0,34,0.00,,,0.00,Wunderground v.1.15,2013-09-07 01:19:00,
2013-09-06 18:24:00,96.3,65.0,29.68,WSW,257,8.0,12.0,36,0.00,,,0.00,Wunderground v.1.15,2013-09-07 01:24:00,
2013-09-06 18:29:00,95.2,65.6,29.68,WSW,252,5.0,12.0,38,0.00,,,0.00,Wunderground v.1.15,2013-09-07 01:29:00,
2013-09-06 18:34:00,94.5,65.7,29.68,WSW,252,6.0,11.0,39,0.00,,,0.00,Wunderground v.1.15,2013-09-07 01:34:00,
2013-09-06 18:39:00,94.4,65.6,29.70,SW,232,9.0,16.0,39,0.00,,,0.00,Wunderground v.1.15,2013-09-07 01:39:00,
2013-09-06 18:44:00,93.8,65.1,29.70,SSE,153,1.0,15.0,39,0.00,,,0.00,Wunderground v.1.15,2013-09-07 01:44:00,
2013-09-06 18:49:00,92.9,65.0,29.71,NNW,347,1.0,15.0,40,0.00,,,0.00,Wunderground v.1.15,2013-09-07 01:49:00,
2013-09-06 18:54:00,91.9,65.5,29.72,North,356,5.0,8.0,42,0.00,,,0.00,Wunderground v.1.15,2013-09-07 01:54:00,
2013-09-06 18:59:00,90.7,66.4,29.72,East,88,0.0,8.0,45,0.00,,,0.00,Wunderground v.1.15,2013-09-07 01:59:00,
2013-09-06 19:04:00,90.9,63.2,29.72,NW,311,3.0,4.0,40,0.00,,,0.00,Wunderground v.1.15,2013-09-07 02:04:00,
2013-09-06 19:09:00,92.2,64.4,29.73,NNW,333,1.0,7.0,40,0.00,,,0.00,Wunderground v.1.15,2013-09-07 02:09:00,
2013-09-06 19:13:00,92.1,65.0,29.75,ESE,119,4.0,12.0,41,0.00,,,0.00,Wunderground v.1.15,2013-09-07 02:13:00,
2013-09-06 19:18:00,89.5,69.5,29.76,SE,141,11.0,25.0,52,0.00,,,0.00,Wunderground v.1.15,2013-09-07 02:18:00,
2013-09-06 19:23:00,87.4,68.2,29.77,East,96,11.0,17.0,53,0.00,,,0.00,Wunderground v.1.15,2013-09-07 02:23:00,
2013-09-06 19:28:00,84.8,70.8,29.77,ESE,115,6.0,19.0,63,0.64,,,0.05,Wunderground v.1.15,2013-09-07 02:28:00,
2013-09-06 19:33:00,82.3,72.0,29.77,East,96,10.0,15.0,71,0.23,,,0.07,Wunderground v.1.15,2013-09-07 02:33:00,
2013-09-06 19:38:00,82.4,71.2,29.77,ESE,113,12.0,16.0,69,0.08,,,0.07,Wunderground v.1.15,2013-09-07 02:38:00,
2013-09-06 19:43:00,82.7,71.1,29.79,SE,133,6.0,15.0,68,0.05,,,0.07,Wunderground v.1.15,2013-09-07 02:43:00,
2013-09-06 19:48:00,82.1,71.3,29.80,ESE,115,5.0,15.0,70,0.04,,,0.08,Wunderground v.1.15,2013-09-07 02:48:00,
2013-09-06 19:53:00,81.6,72.5,29.82,ENE,63,5.0,7.0,74,0.04,,,0.08,Wunderground v.1.15,2013-09-07 02:53:00,
2013-09-06 19:58:00,80.4,70.9,29.82,ESE,102,5.0,11.0,73,0.06,,,0.09,Wunderground v.1.15,2013-09-07 02:58:00,
2013-09-06 20:03:00,79.6,71.0,29.83,ESE,111,4.0,8.0,75,0.12,,,0.10,Wunderground v.1.15,2013-09-07 03:03:00,
2013-09-06 20:08:00,79.1,71.6,29.84,SE,129,3.0,9.0,78,0.11,,,0.11,Wunderground v.1.15,2013-09-07 03:08:00,
2013-09-06 20:13:00,78.6,71.9,29.85,East,91,4.0,7.0,80,0.24,,,0.13,Wunderground v.1.15,2013-09-07 03:13:00,
2013-09-06 20:18:00,78.2,71.2,29.85,ESE,111,3.0,7.0,79,0.14,,,0.14,Wunderground v.1.15,2013-09-07 03:18:00,
2013-09-06 20:23:00,78.0,71.3,29.85,SE,135,3.0,9.0,80,0.17,,,0.15,Wunderground v.1.15,2013-09-07 03:23:00,
2013-09-06 20:28:00,78.2,71.5,29.86,ESE,104,5.0,9.0,80,0.12,,,0.16,Wunderground v.1.15,2013-09-07 03:28:00,
2013-09-06 20:33:00,78.6,71.9,29.86,SE,134,2.0,7.0,80,0.07,,,0.16,Wunderground v.1.15,2013-09-07 03:33:00,
2013-09-06 20:38:00,78.8,72.8,29.87,ESE,103,2.0,8.0,82,0.06,,,0.17,Wunderground v.1.15,2013-09-07 03:38:00,
2013-09-06 20:43:00,78.9,72.9,29.87,ESE,123,6.0,11.0,82,0.11,,,0.18,Wunderground v.1.15,2013-09-07 03:43:00,
2013-09-06 20:48:00,78.9,72.9,29.87,SE,134,4.0,12.0,82,0.13,,,0.19,Wunderground v.1.15,2013-09-07 03:48:00,
2013-09-06 20:53:00,78.6,72.6,29.87,SE,127,4.0,8.0,82,0.13,,,0.20,Wunderground v.1.15,2013-09-07 03:53:00,
2013-09-06 20:58:00,78.4,72.8,29.87,SE,141,8.0,10.0,83,0.19,,,0.22,Wunderground v.1.15,2013-09-07 03:58:00,
2013-09-06 21:01:00,78.5,72.9,29.87,ESE,115,7.0,9.0,83,0.19,,,0.22,Wunderground v.1.15,2013-09-07 04:01:00,
2013-09-06 21:06:00,79.0,72.7,29.86,ESE,114,6.0,11.0,81,0.13,,,0.23,Wunderground v.1.15,2013-09-07 04:06:00,
2013-09-06 21:11:00,79.4,72.7,29.86,ENE,72,4.0,10.0,80,0.16,,,0.24,Wunderground v.1.15,2013-09-07 04:11:00,
2013-09-06 21:16:00,79.6,72.9,29.85,ENE,76,4.0,10.0,80,0.14,,,0.26,Wunderground v.1.15,2013-09-07 04:16:00,
2013-09-06 21:21:00,79.6,72.9,29.84,NE,53,3.0,6.0,80,0.17,,,0.27,Wunderground v.1.15,2013-09-07 04:21:00,
2013-09-06 21:26:00,79.5,72.4,29.84,ESE,123,5.0,8.0,79,0.12,,,0.28,Wunderground v.1.15,2013-09-07 04:26:00,
2013-09-06 21:31:00,79.5,72.0,29.84,ENE,65,3.0,9.0,78,0.13,,,0.29,Wunderground v.1.15,2013-09-07 04:31:00,
2013-09-06 21:36:00,79.8,70.8,29.83,ESE,115,1.0,9.0,74,0.15,,,0.30,Wunderground v.1.15,2013-09-07 04:36:00,
2013-09-06 21:41:00,79.9,71.7,29.83,East,92,0.0,4.0,76,0.13,,,0.31,Wunderground v.1.15,2013-09-07 04:41:00,
2013-09-06 21:46:00,79.9,70.9,29.82,ENE,59,4.0,8.0,74,0.07,,,0.32,Wunderground v.1.15,2013-09-07 04:46:00,
2013-09-06 21:51:00,80.1,71.5,29.81,ENE,74,5.0,8.0,75,0.07,,,0.32,Wunderground v.1.15,2013-09-07 04:51:00,
2013-09-06 21:56:00,80.0,72.5,29.81,East,84,12.0,13.0,78,0.08,,,0.33,Wunderground v.1.15,2013-09-07 04:56:00,
2013-09-06 22:01:00,79.8,71.6,29.81,ENE,72,14.0,17.0,76,0.08,,,0.33,Wunderground v.1.15,2013-09-07 05:01:00,
2013-09-06 22:06:00,80.4,70.5,29.81,East,100,8.0,17.0,72,0.07,,,0.34,Wunderground v.1.15,2013-09-07 05:06:00,
2013-09-06 22:11:00,80.8,69.7,29.81,ESE,104,9.0,15.0,69,0.07,,,0.34,Wunderground v.1.15,2013-09-07 05:11:00,
2013-09-06 22:16:00,80.6,70.3,29.82,East,84,2.0,15.0,71,0.04,,,0.34,Wunderground v.1.15,2013-09-07 05:16:00,
2013-09-06 22:21:00,80.5,69.8,29.83,ENE,78,3.0,6.0,70,0.00,,,0.34,Wunderground v.1.15,2013-09-07 05:21:00,
2013-09-06 22:26:00,80.8,69.7,29.83,East,90,2.0,7.0,69,0.00,,,0.34,Wunderground v.1.15,2013-09-07 05:26:00,
2013-09-06 22:31:00,80.7,70.0,29.84,ENE,75,0.0,2.0,70,0.00,,,0.34,Wunderground v.1.15,2013-09-07 05:31:00,
2013-09-06 22:36:00,80.2,69.9,29.84,NNW,333,5.0,8.0,71,0.00,,,0.34,Wunderground v.1.15,2013-09-07 05:36:00,
2013-09-06 22:41:00,78.8,70.6,29.84,NNW,340,9.0,12.0,76,0.00,,,0.34,Wunderground v.1.15,2013-09-07 05:41:00,
2013-09-06 22:46:00,78.8,69.8,29.84,ENE,57,10.0,14.0,74,0.00,,,0.34,Wunderground v.1.15,2013-09-07 05:46:00,
2013-09-06 22:51:00,78.8,69.4,29.85,NNE,30,3.0,8.0,73,0.00,,,0.34,Wunderground v.1.15,2013-09-07 05:51:00,
2013-09-06 22:56:00,79.6,69.4,29.85,ENE,74,1.0,13.0,71,0.00,,,0.34,Wunderground v.1.15,2013-09-07 05:56:00,
2013-09-06 23:01:00,80.1,69.4,29.85,SSW,211,0.0,4.0,70,0.00,,,0.34,Wunderground v.1.15,2013-09-07 06:01:00,
2013-09-06 23:06:00,80.2,70.4,29.84,NNE,26,2.0,4.0,72,0.00,,,0.34,Wunderground v.1.15,2013-09-07 06:06:00,
2013-09-06 23:11:00,80.2,69.5,29.84,ENE,63,0.0,2.0,70,0.00,,,0.34,Wunderground v.1.15,2013-09-07 06:11:00,
2013-09-06 23:16:00,80.0,70.2,29.84,NNE,16,0.0,6.0,72,0.00,,,0.34,Wunderground v.1.15,2013-09-07 06:16:00,
2013-09-06 23:21:00,79.3,70.3,29.84,SE,125,0.0,2.0,74,0.00,,,0.34,Wunderground v.1.15,2013-09-07 06:21:00,
2013-09-06 23:26:00,78.8,69.8,29.84,East,90,0.0,2.0,74,0.00,,,0.34,Wunderground v.1.15,2013-09-07 06:26:00,
2013-09-06 23:31:00,79.0,70.0,29.83,ENE,74,0.0,0.0,74,0.00,,,0.34,Wunderground v.1.15,2013-09-07 06:31:00,
2013-09-06 23:36:00,79.4,70.8,29.84,North,351,0.0,1.0,75,0.00,,,0.34,Wunderground v.1.15,2013-09-07 06:36:00,
2013-09-06 23:41:00,79.0,70.4,29.84,NNW,342,2.0,2.0,75,0.00,,,0.34,Wunderground v.1.15,2013-09-07 06:41:00,
2013-09-06 23:46:00,78.7,70.1,29.83,NW,314,2.0,2.0,75,0.00,,,0.34,Wunderground v.1.15,2013-09-07 06:46:00,
2013-09-06 23:51:00,78.1,70.7,29.83,WSW,240,5.0,7.0,78,0.00,,,0.34,Wunderground v.1.15,2013-09-07 06:51:00,
2013-09-06 23:56:00,77.6,70.6,29.83,WNW,295,2.0,7.0,79,0.00,,,0.34,Wunderground v.1.15,2013-09-07 06:56:00,